sensor_id;sensor_type;location;lat;lon;timestamp;P1;durP1;ratioP1;P2;durP2;ratioP2
54947;SDS011;41113;41.882;12.530;2023-03-23T00:02:26;31.08;;;20.20;;
54947;SDS011;41113;41.882;12.530;2023-03-23T00:04:56;28.33;;;18.38;;
54947;SDS011;41113;41.882;12.530;2023-03-23T00:07:22;24.35;;;16.63;;
54947;SDS011;41113;41.882;12.530;2023-03-23T00:09:48;22.13;;;15.80;;
54947;SDS011;41113;41.882;12.530;2023-03-23T00:12:25;23.83;;;16.45;;
54947;SDS011;41113;41.882;12.530;2023-03-23T00:15:01;24.20;;;13.98;;
54947;SDS011;41113;41.882;12.530;2023-03-23T00:17:31;20.50;;;14.60;;
54947;SDS011;41113;41.882;12.530;2023-03-23T00:20:00;22.10;;;14.57;;
54947;SDS011;41113;41.882;12.530;2023-03-23T00:22:30;23.85;;;15.98;;
54947;SDS011;41113;41.882;12.530;2023-03-23T00:25:02;22.13;;;14.13;;
54947;SDS011;41113;41.882;12.530;2023-03-23T00:27:28;23.30;;;15.82;;
54947;SDS011;41113;41.882;12.530;2023-03-23T00:29:54;24.85;;;17.50;;
54947;SDS011;41113;41.882;12.530;2023-03-23T00:32:20;25.88;;;17.90;;
54947;SDS011;41113;41.882;12.530;2023-03-23T00:34:52;26.00;;;20.15;;
54947;SDS011;41113;41.882;12.530;2023-03-23T00:37:18;34.75;;;25.48;;
54947;SDS011;41113;41.882;12.530;2023-03-23T00:39:44;32.95;;;22.27;;
54947;SDS011;41113;41.882;12.530;2023-03-23T00:42:14;32.65;;;23.85;;
54947;SDS011;41113;41.882;12.530;2023-03-23T00:44:41;33.08;;;22.48;;
54947;SDS011;41113;41.882;12.530;2023-03-23T00:47:11;37.03;;;26.70;;
54947;SDS011;41113;41.882;12.530;2023-03-23T00:49:37;38.88;;;26.70;;
54947;SDS011;41113;41.882;12.530;2023-03-23T00:52:04;39.00;;;28.15;;
54947;SDS011;41113;41.882;12.530;2023-03-23T00:54:31;37.83;;;29.67;;
54947;SDS011;41113;41.882;12.530;2023-03-23T00:56:59;37.45;;;28.42;;
54947;SDS011;41113;41.882;12.530;2023-03-23T00:59:24;43.35;;;29.25;;
54947;SDS011;41113;41.882;12.530;2023-03-23T01:01:50;38.58;;;26.38;;
54947;SDS011;41113;41.882;12.530;2023-03-23T01:04:15;40.75;;;28.20;;
54947;SDS011;41113;41.882;12.530;2023-03-23T01:06:43;38.30;;;27.30;;
54947;SDS011;41113;41.882;12.530;2023-03-23T01:09:11;38.90;;;26.52;;
54947;SDS011;41113;41.882;12.530;2023-03-23T01:11:42;35.45;;;26.48;;
54947;SDS011;41113;41.882;12.530;2023-03-23T01:14:08;39.88;;;29.17;;
54947;SDS011;41113;41.882;12.530;2023-03-23T01:16:34;37.60;;;28.10;;
54947;SDS011;41113;41.882;12.530;2023-03-23T01:19:00;38.80;;;28.58;;
54947;SDS011;41113;41.882;12.530;2023-03-23T01:21:25;36.53;;;27.02;;
54947;SDS011;41113;41.882;12.530;2023-03-23T01:23:51;45.85;;;31.70;;
54947;SDS011;41113;41.882;12.530;2023-03-23T01:26:17;39.00;;;30.70;;
54947;SDS011;41113;41.882;12.530;2023-03-23T01:28:44;43.90;;;31.35;;
54947;SDS011;41113;41.882;12.530;2023-03-23T01:31:12;42.30;;;29.92;;
54947;SDS011;41113;41.882;12.530;2023-03-23T01:36:07;38.55;;;29.42;;
54947;SDS011;41113;41.882;12.530;2023-03-23T01:41:00;38.63;;;28.30;;
54947;SDS011;41113;41.882;12.530;2023-03-23T01:43:26;36.60;;;26.83;;
54947;SDS011;41113;41.882;12.530;2023-03-23T01:45:52;39.67;;;28.20;;
54947;SDS011;41113;41.882;12.530;2023-03-23T01:48:25;39.40;;;27.58;;
54947;SDS011;41113;41.882;12.530;2023-03-23T01:50:57;35.03;;;26.38;;
54947;SDS011;41113;41.882;12.530;2023-03-23T01:53:28;42.22;;;25.85;;
54947;SDS011;41113;41.882;12.530;2023-03-23T01:55:58;35.85;;;26.45;;
54947;SDS011;41113;41.882;12.530;2023-03-23T01:58:26;37.90;;;25.65;;
54947;SDS011;41113;41.882;12.530;2023-03-23T02:00:55;33.78;;;24.85;;
54947;SDS011;41113;41.882;12.530;2023-03-23T02:03:25;36.60;;;26.30;;
54947;SDS011;41113;41.882;12.530;2023-03-23T02:05:53;32.08;;;24.42;;
54947;SDS011;41113;41.882;12.530;2023-03-23T02:08:23;36.40;;;26.02;;
54947;SDS011;41113;41.882;12.530;2023-03-23T02:10:51;35.45;;;25.38;;
54947;SDS011;41113;41.882;12.530;2023-03-23T02:13:17;38.05;;;25.15;;
54947;SDS011;41113;41.882;12.530;2023-03-23T02:23:45;36.90;;;26.13;;
54947;SDS011;41113;41.882;12.530;2023-03-23T02:37:19;36.40;;;27.02;;
54947;SDS011;41113;41.882;12.530;2023-03-23T02:40:09;35.72;;;26.20;;
54947;SDS011;41113;41.882;12.530;2023-03-23T02:42:41;37.03;;;26.42;;
54947;SDS011;41113;41.882;12.530;2023-03-23T02:47:37;39.75;;;28.10;;
54947;SDS011;41113;41.882;12.530;2023-03-23T02:50:07;40.13;;;28.08;;
54947;SDS011;41113;41.882;12.530;2023-03-23T02:52:37;43.95;;;31.20;;
54947;SDS011;41113;41.882;12.530;2023-03-23T02:55:05;47.17;;;30.85;;
54947;SDS011;41113;41.882;12.530;2023-03-23T02:57:33;46.72;;;32.47;;
54947;SDS011;41113;41.882;12.530;2023-03-23T02:59:59;40.72;;;29.67;;
54947;SDS011;41113;41.882;12.530;2023-03-23T03:02:29;41.15;;;30.80;;
54947;SDS011;41113;41.882;12.530;2023-03-23T03:10:52;40.58;;;30.40;;
54947;SDS011;41113;41.882;12.530;2023-03-23T03:13:24;38.83;;;30.23;;
54947;SDS011;41113;41.882;12.530;2023-03-23T03:16:16;43.20;;;31.70;;
54947;SDS011;41113;41.882;12.530;2023-03-23T03:21:27;49.70;;;33.83;;
54947;SDS011;41113;41.882;12.530;2023-03-23T03:23:56;50.70;;;38.05;;
54947;SDS011;41113;41.882;12.530;2023-03-23T03:26:26;48.78;;;37.58;;
54947;SDS011;41113;41.882;12.530;2023-03-23T03:28:53;53.58;;;38.83;;
54947;SDS011;41113;41.882;12.530;2023-03-23T03:31:20;55.22;;;40.33;;
54947;SDS011;41113;41.882;12.530;2023-03-23T03:33:51;50.75;;;38.92;;
54947;SDS011;41113;41.882;12.530;2023-03-23T03:36:18;62.45;;;41.50;;
54947;SDS011;41113;41.882;12.530;2023-03-23T03:38:47;60.70;;;42.47;;
54947;SDS011;41113;41.882;12.530;2023-03-23T03:41:14;55.97;;;40.95;;
54947;SDS011;41113;41.882;12.530;2023-03-23T03:43:41;57.92;;;41.45;;
54947;SDS011;41113;41.882;12.530;2023-03-23T03:46:06;57.42;;;41.83;;
54947;SDS011;41113;41.882;12.530;2023-03-23T03:48:32;51.05;;;39.97;;
54947;SDS011;41113;41.882;12.530;2023-03-23T03:50:58;54.50;;;40.17;;
54947;SDS011;41113;41.882;12.530;2023-03-23T03:53:25;51.78;;;37.00;;
54947;SDS011;41113;41.882;12.530;2023-03-23T03:55:51;53.30;;;37.47;;
54947;SDS011;41113;41.882;12.530;2023-03-23T03:58:20;52.75;;;38.40;;
54947;SDS011;41113;41.882;12.530;2023-03-23T04:00:49;56.65;;;40.15;;
54947;SDS011;41113;41.882;12.530;2023-03-23T04:03:15;55.72;;;40.50;;
54947;SDS011;41113;41.882;12.530;2023-03-23T04:05:41;53.17;;;39.53;;
54947;SDS011;41113;41.882;12.530;2023-03-23T04:08:09;53.65;;;39.60;;
54947;SDS011;41113;41.882;12.530;2023-03-23T04:10:36;56.90;;;42.35;;
54947;SDS011;41113;41.882;12.530;2023-03-23T04:13:02;53.33;;;40.58;;
54947;SDS011;41113;41.882;12.530;2023-03-23T04:15:29;53.53;;;39.90;;
54947;SDS011;41113;41.882;12.530;2023-03-23T04:17:55;53.05;;;41.40;;
54947;SDS011;41113;41.882;12.530;2023-03-23T04:20:21;62.67;;;43.50;;
54947;SDS011;41113;41.882;12.530;2023-03-23T04:22:47;57.47;;;41.72;;
54947;SDS011;41113;41.882;12.530;2023-03-23T04:25:18;49.85;;;35.30;;
54947;SDS011;41113;41.882;12.530;2023-03-23T04:27:50;55.70;;;38.72;;
54947;SDS011;41113;41.882;12.530;2023-03-23T04:30:19;54.55;;;39.42;;
54947;SDS011;41113;41.882;12.530;2023-03-23T04:32:47;52.90;;;37.67;;
54947;SDS011;41113;41.882;12.530;2023-03-23T04:35:15;49.53;;;37.55;;
54947;SDS011;41113;41.882;12.530;2023-03-23T04:37:42;54.63;;;39.92;;
54947;SDS011;41113;41.882;12.530;2023-03-23T04:40:08;59.20;;;39.83;;
54947;SDS011;41113;41.882;12.530;2023-03-23T04:42:38;48.97;;;36.75;;
54947;SDS011;41113;41.882;12.530;2023-03-23T04:45:05;54.47;;;38.25;;
54947;SDS011;41113;41.882;12.530;2023-03-23T04:47:33;47.22;;;34.50;;
54947;SDS011;41113;41.882;12.530;2023-03-23T04:50:05;46.15;;;35.13;;
54947;SDS011;41113;41.882;12.530;2023-03-23T04:52:36;41.88;;;31.95;;
54947;SDS011;41113;41.882;12.530;2023-03-23T04:55:09;43.83;;;32.08;;
54947;SDS011;41113;41.882;12.530;2023-03-23T04:57:35;40.15;;;29.85;;
54947;SDS011;41113;41.882;12.530;2023-03-23T05:00:02;39.15;;;29.35;;
54947;SDS011;41113;41.882;12.530;2023-03-23T05:02:34;46.13;;;30.42;;
54947;SDS011;41113;41.882;12.530;2023-03-23T05:05:01;42.42;;;29.67;;
54947;SDS011;41113;41.882;12.530;2023-03-23T05:07:26;43.03;;;31.17;;
54947;SDS011;41113;41.882;12.530;2023-03-23T05:09:52;42.13;;;28.13;;
54947;SDS011;41113;41.882;12.530;2023-03-23T05:12:18;40.03;;;28.95;;
54947;SDS011;41113;41.882;12.530;2023-03-23T05:14:43;44.65;;;30.05;;
54947;SDS011;41113;41.882;12.530;2023-03-23T05:17:09;38.70;;;29.58;;
54947;SDS011;41113;41.882;12.530;2023-03-23T05:19:45;42.72;;;32.05;;
54947;SDS011;41113;41.882;12.530;2023-03-23T05:22:12;40.63;;;29.02;;
54947;SDS011;41113;41.882;12.530;2023-03-23T05:24:39;38.00;;;29.27;;
54947;SDS011;41113;41.882;12.530;2023-03-23T05:27:10;39.38;;;28.98;;
54947;SDS011;41113;41.882;12.530;2023-03-23T05:29:36;39.53;;;28.83;;
54947;SDS011;41113;41.882;12.530;2023-03-23T05:32:03;41.22;;;28.63;;
54947;SDS011;41113;41.882;12.530;2023-03-23T05:34:30;40.67;;;28.33;;
54947;SDS011;41113;41.882;12.530;2023-03-23T05:36:57;39.47;;;27.90;;
54947;SDS011;41113;41.882;12.530;2023-03-23T05:39:26;41.05;;;30.50;;
54947;SDS011;41113;41.882;12.530;2023-03-23T05:44:21;39.92;;;26.08;;
54947;SDS011;41113;41.882;12.530;2023-03-23T05:46:47;37.03;;;26.52;;
54947;SDS011;41113;41.882;12.530;2023-03-23T05:49:14;32.90;;;24.92;;
54947;SDS011;41113;41.882;12.530;2023-03-23T05:51:41;34.92;;;24.85;;
54947;SDS011;41113;41.882;12.530;2023-03-23T05:54:07;31.70;;;24.02;;
54947;SDS011;41113;41.882;12.530;2023-03-23T05:56:33;36.00;;;23.90;;
54947;SDS011;41113;41.882;12.530;2023-03-23T05:58:58;34.63;;;23.58;;
54947;SDS011;41113;41.882;12.530;2023-03-23T06:01:24;32.55;;;24.23;;
54947;SDS011;41113;41.882;12.530;2023-03-23T06:03:50;32.25;;;24.05;;
54947;SDS011;41113;41.882;12.530;2023-03-23T06:06:19;34.23;;;24.80;;
54947;SDS011;41113;41.882;12.530;2023-03-23T06:08:45;36.80;;;25.92;;
54947;SDS011;41113;41.882;12.530;2023-03-23T06:11:11;35.28;;;24.75;;
54947;SDS011;41113;41.882;12.530;2023-03-23T06:13:36;33.33;;;23.52;;
54947;SDS011;41113;41.882;12.530;2023-03-23T06:16:02;32.63;;;24.33;;
54947;SDS011;41113;41.882;12.530;2023-03-23T06:18:29;32.22;;;23.85;;
54947;SDS011;41113;41.882;12.530;2023-03-23T06:20:58;30.67;;;22.83;;
54947;SDS011;41113;41.882;12.530;2023-03-23T06:23:24;31.17;;;22.17;;
54947;SDS011;41113;41.882;12.530;2023-03-23T06:25:49;32.20;;;23.67;;
54947;SDS011;41113;41.882;12.530;2023-03-23T06:28:21;31.42;;;23.10;;
54947;SDS011;41113;41.882;12.530;2023-03-23T06:30:46;32.55;;;23.70;;
54947;SDS011;41113;41.882;12.530;2023-03-23T06:33:11;32.60;;;22.77;;
54947;SDS011;41113;41.882;12.530;2023-03-23T06:35:37;32.30;;;22.80;;
54947;SDS011;41113;41.882;12.530;2023-03-23T06:38:02;33.20;;;22.58;;
54947;SDS011;41113;41.882;12.530;2023-03-23T06:40:28;31.10;;;21.55;;
54947;SDS011;41113;41.882;12.530;2023-03-23T06:42:54;28.92;;;20.95;;
54947;SDS011;41113;41.882;12.530;2023-03-23T06:45:24;28.73;;;20.40;;
54947;SDS011;41113;41.882;12.530;2023-03-23T06:47:50;27.25;;;20.45;;
54947;SDS011;41113;41.882;12.530;2023-03-23T06:50:15;31.92;;;21.02;;
54947;SDS011;41113;41.882;12.530;2023-03-23T06:52:45;33.78;;;21.65;;
54947;SDS011;41113;41.882;12.530;2023-03-23T06:57:37;31.88;;;21.33;;
54947;SDS011;41113;41.882;12.530;2023-03-23T07:00:03;33.03;;;21.75;;
54947;SDS011;41113;41.882;12.530;2023-03-23T07:02:39;30.67;;;21.00;;
54947;SDS011;41113;41.882;12.530;2023-03-23T07:05:05;31.80;;;21.02;;
54947;SDS011;41113;41.882;12.530;2023-03-23T07:07:32;27.75;;;19.83;;
54947;SDS011;41113;41.882;12.530;2023-03-23T07:09:57;29.95;;;20.80;;
54947;SDS011;41113;41.882;12.530;2023-03-23T07:12:23;25.55;;;19.20;;
54947;SDS011;41113;41.882;12.530;2023-03-23T07:14:48;26.80;;;18.70;;
54947;SDS011;41113;41.882;12.530;2023-03-23T07:17:14;26.00;;;17.75;;
54947;SDS011;41113;41.882;12.530;2023-03-23T07:19:40;24.42;;;15.70;;
54947;SDS011;41113;41.882;12.530;2023-03-23T07:22:06;26.85;;;17.88;;
54947;SDS011;41113;41.882;12.530;2023-03-23T07:24:32;23.92;;;16.25;;
54947;SDS011;41113;41.882;12.530;2023-03-23T07:26:58;23.70;;;17.13;;
54947;SDS011;41113;41.882;12.530;2023-03-23T07:29:24;22.13;;;16.75;;
54947;SDS011;41113;41.882;12.530;2023-03-23T07:31:50;22.73;;;16.48;;
54947;SDS011;41113;41.882;12.530;2023-03-23T07:34:16;24.77;;;16.30;;
54947;SDS011;41113;41.882;12.530;2023-03-23T07:36:57;22.38;;;15.02;;
54947;SDS011;41113;41.882;12.530;2023-03-23T07:39:23;22.77;;;15.85;;
54947;SDS011;41113;41.882;12.530;2023-03-23T07:41:49;23.10;;;14.65;;
54947;SDS011;41113;41.882;12.530;2023-03-23T07:44:15;21.33;;;14.70;;
54947;SDS011;41113;41.882;12.530;2023-03-23T07:46:41;20.45;;;14.27;;
54947;SDS011;41113;41.882;12.530;2023-03-23T07:49:07;23.13;;;15.65;;
54947;SDS011;41113;41.882;12.530;2023-03-23T07:51:35;19.85;;;13.68;;
54947;SDS011;41113;41.882;12.530;2023-03-23T07:54:03;24.08;;;15.43;;
54947;SDS011;41113;41.882;12.530;2023-03-23T07:56:29;24.00;;;14.55;;
54947;SDS011;41113;41.882;12.530;2023-03-23T07:58:54;21.92;;;14.80;;
54947;SDS011;41113;41.882;12.530;2023-03-23T08:01:20;21.17;;;14.00;;
54947;SDS011;41113;41.882;12.530;2023-03-23T08:03:46;20.48;;;13.60;;
54947;SDS011;41113;41.882;12.530;2023-03-23T08:06:12;18.83;;;12.82;;
54947;SDS011;41113;41.882;12.530;2023-03-23T08:08:37;21.63;;;13.32;;
54947;SDS011;41113;41.882;12.530;2023-03-23T08:11:05;19.33;;;13.55;;
54947;SDS011;41113;41.882;12.530;2023-03-23T08:13:31;24.30;;;15.20;;
54947;SDS011;41113;41.882;12.530;2023-03-23T08:15:58;21.23;;;14.85;;
54947;SDS011;41113;41.882;12.530;2023-03-23T08:18:25;22.40;;;14.80;;
54947;SDS011;41113;41.882;12.530;2023-03-23T08:20:51;22.52;;;15.30;;
54947;SDS011;41113;41.882;12.530;2023-03-23T08:23:19;25.10;;;15.13;;
54947;SDS011;41113;41.882;12.530;2023-03-23T08:25:45;26.65;;;15.75;;
54947;SDS011;41113;41.882;12.530;2023-03-23T08:28:12;20.92;;;14.10;;
54947;SDS011;41113;41.882;12.530;2023-03-23T08:30:42;21.08;;;14.32;;
54947;SDS011;41113;41.882;12.530;2023-03-23T08:33:07;21.30;;;13.85;;
54947;SDS011;41113;41.882;12.530;2023-03-23T08:35:35;20.98;;;12.70;;
54947;SDS011;41113;41.882;12.530;2023-03-23T08:38:01;21.88;;;14.13;;
54947;SDS011;41113;41.882;12.530;2023-03-23T08:40:26;20.33;;;13.85;;
54947;SDS011;41113;41.882;12.530;2023-03-23T08:42:52;19.95;;;13.00;;
54947;SDS011;41113;41.882;12.530;2023-03-23T08:45:23;18.30;;;12.35;;
54947;SDS011;41113;41.882;12.530;2023-03-23T08:47:49;18.73;;;11.70;;
54947;SDS011;41113;41.882;12.530;2023-03-23T08:50:21;18.40;;;12.05;;
54947;SDS011;41113;41.882;12.530;2023-03-23T08:52:49;21.38;;;12.85;;
54947;SDS011;41113;41.882;12.530;2023-03-23T08:55:15;18.33;;;12.15;;
54947;SDS011;41113;41.882;12.530;2023-03-23T08:57:42;18.63;;;11.60;;
54947;SDS011;41113;41.882;12.530;2023-03-23T09:00:10;19.45;;;12.00;;
54947;SDS011;41113;41.882;12.530;2023-03-23T09:02:42;25.05;;;15.73;;
54947;SDS011;41113;41.882;12.530;2023-03-23T09:05:09;26.85;;;18.75;;
54947;SDS011;41113;41.882;12.530;2023-03-23T09:07:37;23.10;;;15.55;;
54947;SDS011;41113;41.882;12.530;2023-03-23T09:10:05;19.55;;;13.02;;
54947;SDS011;41113;41.882;12.530;2023-03-23T09:12:32;17.55;;;11.57;;
54947;SDS011;41113;41.882;12.530;2023-03-23T09:14:57;16.48;;;11.05;;
54947;SDS011;41113;41.882;12.530;2023-03-23T09:17:22;16.92;;;10.30;;
54947;SDS011;41113;41.882;12.530;2023-03-23T09:19:48;18.52;;;10.30;;
54947;SDS011;41113;41.882;12.530;2023-03-23T09:22:14;15.55;;;9.65;;
54947;SDS011;41113;41.882;12.530;2023-03-23T09:24:44;18.48;;;9.93;;
54947;SDS011;41113;41.882;12.530;2023-03-23T09:27:11;16.05;;;9.98;;
54947;SDS011;41113;41.882;12.530;2023-03-23T09:29:36;19.80;;;10.52;;
54947;SDS011;41113;41.882;12.530;2023-03-23T09:32:02;14.75;;;9.98;;
54947;SDS011;41113;41.882;12.530;2023-03-23T09:34:27;17.10;;;10.70;;
54947;SDS011;41113;41.882;12.530;2023-03-23T09:36:54;19.23;;;11.25;;
54947;SDS011;41113;41.882;12.530;2023-03-23T09:39:19;18.63;;;11.77;;
54947;SDS011;41113;41.882;12.530;2023-03-23T09:41:54;20.58;;;13.18;;
54947;SDS011;41113;41.882;12.530;2023-03-23T09:50:43;20.05;;;12.75;;
54947;SDS011;41113;41.882;12.530;2023-03-23T09:53:16;17.35;;;11.82;;
54947;SDS011;41113;41.882;12.530;2023-03-23T09:55:49;15.77;;;11.00;;
54947;SDS011;41113;41.882;12.530;2023-03-23T09:58:21;17.90;;;10.10;;
54947;SDS011;41113;41.882;12.530;2023-03-23T10:01:06;15.00;;;9.48;;
54947;SDS011;41113;41.882;12.530;2023-03-23T10:03:34;20.35;;;9.63;;
54947;SDS011;41113;41.882;12.530;2023-03-23T10:06:06;16.15;;;9.23;;
54947;SDS011;41113;41.882;12.530;2023-03-23T10:08:35;14.63;;;9.20;;
54947;SDS011;41113;41.882;12.530;2023-03-23T10:11:14;13.77;;;7.85;;
54947;SDS011;41113;41.882;12.530;2023-03-23T10:16:38;11.95;;;6.65;;
54947;SDS011;41113;41.882;12.530;2023-03-23T10:19:22;15.65;;;6.93;;
54947;SDS011;41113;41.882;12.530;2023-03-23T10:21:52;13.60;;;5.80;;
54947;SDS011;41113;41.882;12.530;2023-03-23T10:24:25;11.55;;;5.55;;
54947;SDS011;41113;41.882;12.530;2023-03-23T10:29:50;13.73;;;5.55;;
54947;SDS011;41113;41.882;12.530;2023-03-23T10:32:22;13.10;;;6.18;;
54947;SDS011;41113;41.882;12.530;2023-03-23T10:35:05;16.98;;;6.65;;
54947;SDS011;41113;41.882;12.530;2023-03-23T10:37:42;13.48;;;6.20;;
54947;SDS011;41113;41.882;12.530;2023-03-23T10:40:19;14.18;;;7.30;;
54947;SDS011;41113;41.882;12.530;2023-03-23T10:42:49;13.70;;;7.03;;
54947;SDS011;41113;41.882;12.530;2023-03-23T10:47:58;15.65;;;9.00;;
54947;SDS011;41113;41.882;12.530;2023-03-23T10:50:31;13.02;;;7.45;;
54947;SDS011;41113;41.882;12.530;2023-03-23T10:53:00;13.15;;;7.03;;
54947;SDS011;41113;41.882;12.530;2023-03-23T10:55:36;12.87;;;6.63;;
54947;SDS011;41113;41.882;12.530;2023-03-23T11:00:31;12.90;;;7.10;;
54947;SDS011;41113;41.882;12.530;2023-03-23T11:03:04;16.10;;;7.43;;
54947;SDS011;41113;41.882;12.530;2023-03-23T11:05:33;13.23;;;6.45;;
54947;SDS011;41113;41.882;12.530;2023-03-23T11:08:02;12.73;;;6.28;;
54947;SDS011;41113;41.882;12.530;2023-03-23T11:10:41;12.57;;;6.57;;
54947;SDS011;41113;41.882;12.530;2023-03-23T11:13:17;12.98;;;7.07;;
54947;SDS011;41113;41.882;12.530;2023-03-23T11:15:48;11.80;;;6.65;;
54947;SDS011;41113;41.882;12.530;2023-03-23T11:18:21;12.18;;;6.78;;
54947;SDS011;41113;41.882;12.530;2023-03-23T11:20:51;11.73;;;6.40;;
54947;SDS011;41113;41.882;12.530;2023-03-23T11:31:44;12.20;;;6.82;;
54947;SDS011;41113;41.882;12.530;2023-03-23T11:34:16;9.75;;;5.85;;
54947;SDS011;41113;41.882;12.530;2023-03-23T11:36:49;13.57;;;6.38;;
54947;SDS011;41113;41.882;12.530;2023-03-23T11:41:47;12.45;;;6.13;;
54947;SDS011;41113;41.882;12.530;2023-03-23T11:44:13;11.80;;;6.13;;
54947;SDS011;41113;41.882;12.530;2023-03-23T11:46:44;12.75;;;6.68;;
54947;SDS011;41113;41.882;12.530;2023-03-23T11:49:20;12.63;;;5.80;;
54947;SDS011;41113;41.882;12.530;2023-03-23T11:55:10;14.48;;;6.93;;
54947;SDS011;41113;41.882;12.530;2023-03-23T11:57:42;15.20;;;7.05;;
54947;SDS011;41113;41.882;12.530;2023-03-23T12:00:17;14.27;;;6.78;;
54947;SDS011;41113;41.882;12.530;2023-03-23T12:02:59;17.00;;;7.03;;
54947;SDS011;41113;41.882;12.530;2023-03-23T12:05:58;12.35;;;6.07;;
54947;SDS011;41113;41.882;12.530;2023-03-23T12:11:41;13.52;;;5.72;;
54947;SDS011;41113;41.882;12.530;2023-03-23T12:30:53;9.60;;;3.80;;
54947;SDS011;41113;41.882;12.530;2023-03-23T12:36:18;12.23;;;3.78;;
54947;SDS011;41113;41.882;12.530;2023-03-23T12:44:59;8.80;;;2.97;;
54947;SDS011;41113;41.882;12.530;2023-03-23T12:47:50;7.22;;;2.78;;
54947;SDS011;41113;41.882;12.530;2023-03-23T12:58:16;9.13;;;3.58;;
54947;SDS011;41113;41.882;12.530;2023-03-23T13:08:41;10.60;;;3.20;;
54947;SDS011;41113;41.882;12.530;2023-03-23T13:11:16;8.57;;;3.00;;
54947;SDS011;41113;41.882;12.530;2023-03-23T13:16:55;7.68;;;2.97;;
54947;SDS011;41113;41.882;12.530;2023-03-23T13:22:00;7.68;;;2.63;;
54947;SDS011;41113;41.882;12.530;2023-03-23T13:24:31;8.93;;;3.20;;
54947;SDS011;41113;41.882;12.530;2023-03-23T13:27:04;10.90;;;3.40;;
54947;SDS011;41113;41.882;12.530;2023-03-23T13:29:31;8.07;;;2.90;;
54947;SDS011;41113;41.882;12.530;2023-03-23T13:32:10;8.80;;;3.30;;
54947;SDS011;41113;41.882;12.530;2023-03-23T13:34:43;8.60;;;3.13;;
54947;SDS011;41113;41.882;12.530;2023-03-23T13:39:57;7.35;;;2.70;;
54947;SDS011;41113;41.882;12.530;2023-03-23T13:42:50;8.70;;;2.90;;
54947;SDS011;41113;41.882;12.530;2023-03-23T13:47:42;8.35;;;2.53;;
54947;SDS011;41113;41.882;12.530;2023-03-23T13:57:55;7.68;;;2.47;;
54947;SDS011;41113;41.882;12.530;2023-03-23T14:08:23;6.75;;;2.60;;
54947;SDS011;41113;41.882;12.530;2023-03-23T14:11:02;9.50;;;2.72;;
54947;SDS011;41113;41.882;12.530;2023-03-23T14:16:38;6.82;;;1.83;;
54947;SDS011;41113;41.882;12.530;2023-03-23T14:19:17;7.32;;;2.03;;
54947;SDS011;41113;41.882;12.530;2023-03-23T14:21:50;7.32;;;2.00;;
54947;SDS011;41113;41.882;12.530;2023-03-23T14:24:24;9.48;;;2.25;;
54947;SDS011;41113;41.882;12.530;2023-03-23T14:26:53;8.60;;;2.00;;
54947;SDS011;41113;41.882;12.530;2023-03-23T14:29:39;6.28;;;1.98;;
54947;SDS011;41113;41.882;12.530;2023-03-23T14:32:06;7.30;;;2.22;;
54947;SDS011;41113;41.882;12.530;2023-03-23T14:34:35;6.43;;;2.10;;
54947;SDS011;41113;41.882;12.530;2023-03-23T14:37:00;7.57;;;2.25;;
54947;SDS011;41113;41.882;12.530;2023-03-23T14:39:31;6.90;;;2.10;;
54947;SDS011;41113;41.882;12.530;2023-03-23T14:42:02;7.85;;;2.00;;
54947;SDS011;41113;41.882;12.530;2023-03-23T14:44:33;7.45;;;2.17;;
54947;SDS011;41113;41.882;12.530;2023-03-23T14:47:09;8.57;;;2.67;;
54947;SDS011;41113;41.882;12.530;2023-03-23T14:49:44;8.32;;;2.40;;
54947;SDS011;41113;41.882;12.530;2023-03-23T14:52:11;5.85;;;1.95;;
54947;SDS011;41113;41.882;12.530;2023-03-23T14:54:38;9.35;;;2.40;;
54947;SDS011;41113;41.882;12.530;2023-03-23T14:57:17;7.50;;;2.35;;
54947;SDS011;41113;41.882;12.530;2023-03-23T14:59:45;8.60;;;1.95;;
54947;SDS011;41113;41.882;12.530;2023-03-23T15:02:14;7.80;;;2.15;;
54947;SDS011;41113;41.882;12.530;2023-03-23T15:04:49;7.50;;;2.17;;
54947;SDS011;41113;41.882;12.530;2023-03-23T15:07:18;6.50;;;2.40;;
54947;SDS011;41113;41.882;12.530;2023-03-23T15:09:45;8.52;;;2.60;;
54947;SDS011;41113;41.882;12.530;2023-03-23T15:12:22;8.88;;;2.75;;
54947;SDS011;41113;41.882;12.530;2023-03-23T15:14:52;6.65;;;2.53;;
54947;SDS011;41113;41.882;12.530;2023-03-23T15:17:22;7.35;;;2.50;;
54947;SDS011;41113;41.882;12.530;2023-03-23T15:22:22;6.63;;;2.13;;
54947;SDS011;41113;41.882;12.530;2023-03-23T15:25:11;6.43;;;2.28;;
54947;SDS011;41113;41.882;12.530;2023-03-23T15:27:43;9.65;;;2.17;;
54947;SDS011;41113;41.882;12.530;2023-03-23T15:32:46;8.75;;;2.65;;
54947;SDS011;41113;41.882;12.530;2023-03-23T15:35:22;7.07;;;1.95;;
54947;SDS011;41113;41.882;12.530;2023-03-23T15:40:27;7.47;;;2.15;;
54947;SDS011;41113;41.882;12.530;2023-03-23T15:43:17;11.02;;;2.50;;
54947;SDS011;41113;41.882;12.530;2023-03-23T15:48:25;5.90;;;1.92;;
54947;SDS011;41113;41.882;12.530;2023-03-23T15:50:52;7.03;;;1.90;;
54947;SDS011;41113;41.882;12.530;2023-03-23T15:53:26;6.78;;;2.17;;
54947;SDS011;41113;41.882;12.530;2023-03-23T15:55:51;7.45;;;2.22;;
54947;SDS011;41113;41.882;12.530;2023-03-23T15:58:17;8.05;;;2.50;;
54947;SDS011;41113;41.882;12.530;2023-03-23T16:00:42;6.65;;;1.92;;
54947;SDS011;41113;41.882;12.530;2023-03-23T16:03:19;7.85;;;1.88;;
54947;SDS011;41113;41.882;12.530;2023-03-23T16:05:49;7.72;;;2.10;;
54947;SDS011;41113;41.882;12.530;2023-03-23T16:08:15;7.63;;;2.10;;
54947;SDS011;41113;41.882;12.530;2023-03-23T16:10:40;7.07;;;2.20;;
54947;SDS011;41113;41.882;12.530;2023-03-23T16:13:06;8.80;;;2.00;;
54947;SDS011;41113;41.882;12.530;2023-03-23T16:15:31;6.88;;;2.25;;
54947;SDS011;41113;41.882;12.530;2023-03-23T16:17:57;7.82;;;2.17;;
54947;SDS011;41113;41.882;12.530;2023-03-23T16:20:23;8.35;;;2.15;;
54947;SDS011;41113;41.882;12.530;2023-03-23T16:22:48;8.70;;;2.35;;
54947;SDS011;41113;41.882;12.530;2023-03-23T16:25:15;7.78;;;2.10;;
54947;SDS011;41113;41.882;12.530;2023-03-23T16:27:42;7.82;;;2.65;;
54947;SDS011;41113;41.882;12.530;2023-03-23T16:32:39;9.02;;;2.67;;
54947;SDS011;41113;41.882;12.530;2023-03-23T16:35:05;9.45;;;2.83;;
54947;SDS011;41113;41.882;12.530;2023-03-23T16:37:30;9.05;;;2.92;;
54947;SDS011;41113;41.882;12.530;2023-03-23T16:39:57;11.18;;;3.10;;
54947;SDS011;41113;41.882;12.530;2023-03-23T16:42:23;8.23;;;2.67;;
54947;SDS011;41113;41.882;12.530;2023-03-23T16:44:48;10.35;;;2.83;;
54947;SDS011;41113;41.882;12.530;2023-03-23T16:47:15;8.38;;;2.53;;
54947;SDS011;41113;41.882;12.530;2023-03-23T16:49:42;10.52;;;3.75;;
54947;SDS011;41113;41.882;12.530;2023-03-23T16:52:07;10.23;;;2.72;;
54947;SDS011;41113;41.882;12.530;2023-03-23T16:54:33;9.25;;;3.15;;
54947;SDS011;41113;41.882;12.530;2023-03-23T16:56:58;7.68;;;2.90;;
54947;SDS011;41113;41.882;12.530;2023-03-23T16:59:25;8.65;;;2.47;;
54947;SDS011;41113;41.882;12.530;2023-03-23T17:01:52;8.48;;;2.78;;
54947;SDS011;41113;41.882;12.530;2023-03-23T17:04:17;9.70;;;2.70;;
54947;SDS011;41113;41.882;12.530;2023-03-23T17:06:42;11.60;;;3.05;;